createdAt,value
2019-03-17T00:01:04.572Z,0.30
2019-03-17T00:03:35.011Z,0.50
2019-03-17T00:06:07.761Z,0.30
2019-03-17T00:08:37.698Z,0.40
2019-03-17T00:11:08.175Z,0.50
2019-03-17T00:13:38.584Z,0.50
2019-03-17T00:16:09.054Z,0.80
2019-03-17T00:18:39.462Z,0.60
2019-03-17T00:21:09.969Z,0.60
2019-03-17T00:23:40.406Z,0.60
2019-03-17T00:26:10.977Z,0.80
2019-03-17T00:28:44.191Z,0.60
2019-03-17T00:31:23.154Z,0.70
2019-03-17T00:33:45.504Z,0.60
2019-03-17T00:36:16.004Z,0.40
2019-03-17T00:38:46.583Z,0.50
2019-03-17T00:41:17.005Z,0.50
2019-03-17T00:43:47.403Z,0.50
2019-03-17T00:46:17.947Z,0.40
2019-03-17T00:48:48.395Z,0.20
2019-03-17T00:51:18.818Z,0.40
2019-03-17T00:53:49.297Z,0.50
2019-03-17T00:56:19.741Z,0.40
2019-03-17T00:58:50.143Z,0.30
2019-03-17T01:01:20.746Z,0.30
2019-03-17T01:03:51.436Z,0.40
2019-03-17T01:06:21.966Z,0.60
2019-03-17T01:08:52.635Z,0.60
2019-03-17T01:11:23.079Z,0.70
2019-03-17T01:13:53.502Z,0.70
2019-03-17T01:16:23.930Z,0.70
2019-03-17T01:18:54.358Z,0.60
2019-03-17T01:21:24.799Z,0.70
2019-03-17T01:23:55.244Z,0.90
2019-03-17T01:26:25.695Z,0.60
2019-03-17T01:28:56.135Z,0.70
2019-03-17T01:31:26.530Z,0.90
2019-03-17T01:33:57.012Z,0.80
2019-03-17T01:36:27.430Z,0.70
2019-03-17T01:38:57.874Z,0.80
2019-03-17T01:41:28.420Z,0.80
2019-03-17T01:43:58.851Z,0.80
2019-03-17T01:46:29.282Z,0.80
2019-03-17T01:48:59.697Z,0.60
2019-03-17T01:51:30.168Z,0.70
2019-03-17T01:54:00.606Z,0.70
2019-03-17T01:56:31.182Z,0.70
2019-03-17T01:59:01.567Z,1.00
2019-03-17T02:01:31.999Z,0.90
2019-03-17T02:04:02.422Z,0.90
2019-03-17T02:06:32.839Z,0.90
2019-03-17T02:09:04.003Z,1.00
2019-03-17T02:11:34.423Z,1.20
2019-03-17T02:14:04.994Z,1.20
2019-03-17T02:16:35.410Z,1.50
2019-03-17T02:19:05.968Z,1.30
2019-03-17T02:21:36.394Z,1.50
2019-03-17T02:24:06.841Z,1.70
2019-03-17T02:26:37.243Z,1.70
2019-03-17T02:29:07.856Z,1.60
2019-03-17T02:31:38.250Z,1.70
2019-03-17T02:34:11.606Z,1.90
2019-03-17T02:36:40.770Z,1.90
2019-03-17T02:39:11.190Z,2.00
2019-03-17T02:41:41.624Z,1.70
2019-03-17T02:44:12.039Z,2.00
2019-03-17T02:46:42.488Z,1.90
2019-03-17T02:49:12.928Z,2.00
2019-03-17T02:51:43.319Z,2.10
2019-03-17T02:54:13.764Z,2.20
2019-03-17T02:56:44.187Z,2.00
2019-03-17T02:59:14.633Z,2.20
2019-03-17T03:01:45.159Z,2.30
2019-03-17T03:04:15.584Z,2.10
2019-03-17T03:06:45.970Z,2.20
2019-03-17T03:09:16.560Z,2.30
2019-03-17T03:11:46.987Z,2.50
2019-03-17T03:14:17.511Z,2.50
2019-03-17T03:16:47.925Z,2.20
2019-03-17T03:19:18.361Z,2.30
2019-03-17T03:21:48.777Z,2.50
2019-03-17T03:24:19.213Z,2.50
2019-03-17T03:26:49.636Z,2.40
2019-03-17T03:29:20.086Z,2.70
2019-03-17T03:31:50.542Z,2.60
2019-03-17T03:34:20.948Z,2.80
2019-03-17T03:36:51.513Z,2.60
2019-03-17T03:39:21.978Z,2.80
2019-03-17T03:41:52.477Z,2.90
2019-03-17T03:44:22.988Z,2.90
2019-03-17T03:46:53.413Z,2.90
2019-03-17T03:49:23.815Z,2.80
2019-03-17T03:51:54.383Z,3.00
2019-03-17T03:54:24.813Z,2.90
2019-03-17T03:56:55.286Z,2.90
2019-03-17T03:59:25.829Z,3.20
2019-03-17T04:01:56.267Z,3.20
2019-03-17T04:04:26.667Z,3.10
2019-03-17T04:06:57.105Z,3.30
2019-03-17T04:09:27.495Z,3.20
2019-03-17T04:11:58.044Z,3.10
2019-03-17T04:14:29.044Z,3.20
2019-03-17T04:16:59.484Z,3.30
2019-03-17T04:19:29.946Z,3.50
2019-03-17T04:22:00.352Z,3.50
2019-03-17T04:24:30.820Z,3.50
2019-03-17T04:27:01.233Z,3.40
2019-03-17T04:29:31.647Z,3.50
2019-03-17T04:32:02.074Z,3.50
2019-03-17T04:34:32.502Z,3.70
2019-03-17T04:37:02.978Z,3.50
2019-03-17T04:39:33.408Z,3.40
2019-03-17T04:42:03.844Z,3.60
2019-03-17T04:44:34.249Z,3.30
2019-03-17T04:47:04.795Z,3.30
2019-03-17T04:49:35.208Z,3.40
2019-03-17T04:52:05.715Z,3.60
2019-03-17T04:54:36.160Z,3.50
2019-03-17T04:57:06.680Z,3.40
2019-03-17T04:59:37.095Z,3.40
2019-03-17T05:02:07.549Z,3.50
2019-03-17T05:04:37.953Z,3.50
2019-03-17T05:07:08.371Z,3.60
2019-03-17T05:09:38.778Z,3.60
2019-03-17T05:12:09.197Z,3.60
2019-03-17T05:14:39.615Z,3.50
2019-03-17T05:17:10.091Z,3.70
2019-03-17T05:19:40.487Z,3.70
2019-03-17T05:22:10.959Z,3.70
2019-03-17T05:24:41.354Z,3.80
2019-03-17T05:27:11.766Z,3.90
2019-03-17T05:29:42.236Z,3.80
2019-03-17T05:32:12.650Z,4.00
2019-03-17T05:34:43.081Z,4.20
2019-03-17T05:37:13.539Z,4.10
2019-03-17T05:39:43.997Z,4.00
2019-03-17T05:42:14.409Z,4.10
2019-03-17T05:44:44.838Z,4.10
2019-03-17T05:47:15.239Z,4.20
2019-03-17T05:49:45.663Z,4.30
2019-03-17T05:52:16.136Z,4.40
2019-03-17T05:54:46.554Z,4.60
2019-03-17T05:57:16.962Z,4.40
2019-03-17T05:59:47.442Z,4.60
2019-03-17T06:02:17.835Z,4.60
2019-03-17T06:04:48.266Z,4.80
2019-03-17T06:07:19.217Z,4.70
2019-03-17T06:09:50.045Z,4.90
2019-03-17T06:12:20.450Z,4.80
2019-03-17T06:14:50.959Z,4.70
2019-03-17T06:17:21.358Z,5.00
2019-03-17T06:19:51.840Z,4.80
2019-03-17T06:22:22.325Z,5.00
2019-03-17T06:24:52.841Z,4.80
2019-03-17T06:27:23.267Z,4.80
2019-03-17T06:29:53.730Z,4.80
2019-03-17T06:32:24.204Z,5.00
2019-03-17T06:34:54.606Z,5.00
2019-03-17T06:37:31.022Z,5.10
2019-03-17T06:39:57.150Z,5.20
2019-03-17T06:42:27.631Z,5.10
2019-03-17T06:44:58.078Z,5.30
2019-03-17T06:47:28.489Z,5.40
2019-03-17T06:49:58.930Z,5.20
2019-03-17T06:52:29.340Z,5.30
2019-03-17T06:54:59.779Z,5.40
2019-03-17T06:57:30.194Z,5.30
2019-03-17T07:00:00.623Z,5.20
2019-03-17T07:02:31.041Z,5.20
2019-03-17T07:05:01.452Z,5.30
2019-03-17T07:07:43.364Z,5.30
2019-03-17T07:10:04.069Z,5.50
2019-03-17T07:12:34.499Z,5.40
2019-03-17T07:15:05.281Z,5.50
2019-03-17T07:17:35.711Z,5.60
2019-03-17T07:20:07.060Z,5.70
2019-03-17T07:22:37.509Z,6.00
2019-03-17T07:25:08.191Z,6.10
2019-03-17T07:27:38.776Z,6.10
2019-03-17T07:30:10.476Z,6.30
2019-03-17T07:32:40.879Z,6.30
2019-03-17T07:35:11.533Z,6.40
2019-03-17T07:37:41.955Z,6.30
2019-03-17T07:40:12.679Z,6.30
2019-03-17T07:42:43.126Z,6.20
2019-03-17T07:45:13.635Z,6.30
2019-03-17T07:47:44.258Z,6.40
2019-03-17T07:50:14.906Z,6.50
2019-03-17T07:52:45.363Z,6.60
2019-03-17T07:55:15.829Z,6.60
2019-03-17T07:57:47.304Z,6.80
2019-03-17T08:00:17.858Z,6.80
2019-03-17T08:02:48.298Z,6.60
2019-03-17T08:05:18.714Z,6.90
2019-03-17T08:07:49.248Z,6.60
2019-03-17T08:10:19.963Z,6.80
2019-03-17T08:12:50.439Z,6.80
2019-03-17T08:15:20.856Z,7.00
2019-03-17T08:17:51.477Z,7.00
2019-03-17T08:20:21.885Z,7.10
2019-03-17T08:22:52.338Z,7.20
2019-03-17T08:25:22.751Z,7.10
2019-03-17T08:27:53.187Z,7.00
2019-03-17T08:30:23.611Z,7.20
2019-03-17T08:32:54.074Z,7.00
2019-03-17T08:35:24.607Z,7.00
2019-03-17T08:37:55.047Z,6.90
2019-03-17T08:40:25.718Z,7.10
2019-03-17T08:42:56.125Z,7.30
2019-03-17T08:45:26.685Z,7.20
2019-03-17T08:47:58.631Z,7.40
2019-03-17T08:50:29.299Z,7.10
2019-03-17T08:52:59.762Z,7.70
2019-03-17T08:55:30.231Z,7.70
2019-03-17T08:58:00.634Z,7.70
2019-03-17T09:00:32.363Z,7.80
2019-03-17T09:03:02.952Z,7.70
2019-03-17T09:05:33.542Z,7.70
2019-03-17T09:08:04.007Z,7.70
2019-03-17T09:10:34.557Z,7.80
2019-03-17T09:13:05.160Z,8.00
2019-03-17T09:15:35.645Z,8.40
2019-03-17T09:18:06.134Z,8.30
2019-03-17T09:20:36.807Z,8.30
2019-03-17T09:23:07.436Z,8.50
2019-03-17T09:25:38.002Z,8.50
2019-03-17T09:28:08.593Z,8.40
2019-03-17T09:30:39.109Z,8.30
2019-03-17T09:33:09.665Z,8.40
2019-03-17T09:35:40.239Z,8.50
2019-03-17T09:38:10.809Z,8.30
2019-03-17T09:40:41.319Z,8.50
2019-03-17T09:43:11.834Z,8.80
2019-03-17T09:45:42.258Z,9.00
2019-03-17T09:48:12.674Z,9.40
2019-03-17T09:50:43.173Z,9.50
2019-03-17T09:53:13.615Z,9.60
2019-03-17T09:55:44.026Z,9.60
2019-03-17T09:58:14.460Z,9.70
2019-03-17T10:00:46.440Z,9.50
2019-03-17T10:03:16.926Z,9.40
2019-03-17T10:05:49.541Z,9.30
2019-03-17T10:08:19.580Z,9.20
2019-03-17T10:10:50.136Z,9.50
2019-03-17T10:13:20.567Z,9.60
2019-03-17T10:15:51.015Z,9.70
2019-03-17T10:18:21.552Z,9.60
2019-03-17T10:20:52.067Z,9.60
2019-03-17T10:23:22.494Z,9.70
2019-03-17T10:25:53.025Z,9.60
2019-03-17T10:28:23.463Z,9.40
2019-03-17T10:30:54.038Z,9.40
2019-03-17T10:33:24.435Z,9.40
2019-03-17T10:36:02.325Z,9.60
2019-03-17T10:38:33.452Z,9.80
2019-03-17T10:41:03.902Z,9.60
2019-03-17T10:43:34.347Z,9.80
2019-03-17T10:46:04.808Z,9.80
2019-03-17T10:48:35.360Z,9.60
2019-03-17T10:51:06.866Z,9.70
2019-03-17T10:53:37.203Z,9.60
2019-03-17T10:56:07.991Z,9.90
2019-03-17T10:58:38.439Z,10.00
2019-03-17T11:01:08.855Z,10.10
2019-03-17T11:03:39.366Z,10.20
2019-03-17T11:06:10.170Z,10.60
2019-03-17T11:08:40.611Z,10.80
2019-03-17T11:11:12.256Z,10.80
2019-03-17T11:13:42.825Z,10.70
2019-03-17T11:16:13.273Z,10.90
2019-03-17T11:18:43.762Z,10.80
2019-03-17T11:21:14.240Z,10.60
2019-03-17T11:23:44.698Z,10.40
2019-03-17T11:26:15.151Z,10.40
2019-03-17T11:28:45.677Z,10.00
2019-03-17T11:31:16.235Z,10.00
2019-03-17T11:33:46.706Z,9.90
2019-03-17T11:36:17.440Z,9.80
2019-03-17T11:38:47.947Z,10.10
2019-03-17T11:41:18.456Z,10.20
2019-03-17T11:43:48.888Z,10.20
2019-03-17T11:46:19.322Z,10.30
2019-03-17T11:48:49.934Z,10.30
2019-03-17T11:51:20.380Z,10.30
2019-03-17T11:53:50.806Z,10.40
2019-03-17T11:56:21.215Z,10.40
2019-03-17T11:58:51.908Z,10.60
2019-03-17T12:01:22.489Z,10.60
2019-03-17T12:03:53.076Z,11.00
2019-03-17T12:06:23.477Z,11.00
2019-03-17T12:08:53.961Z,12.10
2019-03-17T12:11:24.363Z,12.30
2019-03-17T12:13:54.815Z,12.20
2019-03-17T12:16:25.337Z,12.00
2019-03-17T12:18:55.872Z,12.00
2019-03-17T12:21:26.414Z,11.70
2019-03-17T12:23:56.831Z,11.70
2019-03-17T12:26:27.327Z,12.10
2019-03-17T12:28:57.767Z,12.40
2019-03-17T12:31:28.214Z,12.70
2019-03-17T12:33:58.639Z,13.00
2019-03-17T12:36:29.103Z,12.80
2019-03-17T12:38:59.546Z,12.60
2019-03-17T12:41:30.011Z,12.60
2019-03-17T12:44:00.466Z,12.50
2019-03-17T12:46:30.920Z,12.50
2019-03-17T12:49:01.334Z,12.00
2019-03-17T12:51:31.828Z,11.80
2019-03-17T12:54:02.367Z,11.60
2019-03-17T12:56:32.930Z,11.60
2019-03-17T12:59:03.570Z,11.60
2019-03-17T13:01:34.011Z,11.60
2019-03-17T13:04:04.519Z,11.70
2019-03-17T13:06:35.147Z,11.80
2019-03-17T13:09:07.556Z,11.80
2019-03-17T13:11:37.999Z,11.80
2019-03-17T13:14:08.508Z,11.70
2019-03-17T13:16:38.942Z,11.70
2019-03-17T13:19:09.373Z,11.70
2019-03-17T13:21:39.816Z,11.40
2019-03-17T13:24:12.722Z,11.60
2019-03-17T13:26:43.230Z,11.60
2019-03-17T13:29:13.755Z,11.50
2019-03-17T13:31:44.318Z,11.40
2019-03-17T13:34:15.203Z,11.40
2019-03-17T13:36:46.768Z,11.50
2019-03-17T13:39:17.259Z,11.50
2019-03-17T13:41:47.671Z,11.70
2019-03-17T13:44:18.150Z,11.80
2019-03-17T13:46:48.661Z,11.90
2019-03-17T13:49:19.040Z,12.00
2019-03-17T13:51:49.650Z,12.00
2019-03-17T13:54:20.006Z,12.00
2019-03-17T13:56:50.482Z,12.10
2019-03-17T13:59:20.927Z,12.30
2019-03-17T14:01:51.586Z,12.30
2019-03-17T14:04:22.062Z,12.40
2019-03-17T14:06:52.610Z,12.50
2019-03-17T14:09:23.059Z,12.00
2019-03-17T14:11:53.565Z,11.90
2019-03-17T14:14:24.024Z,11.80
2019-03-17T14:16:54.439Z,11.80
2019-03-17T14:19:24.890Z,11.90
2019-03-17T14:21:55.330Z,11.90
2019-03-17T14:24:25.915Z,12.10
2019-03-17T14:26:56.353Z,12.30
2019-03-17T14:29:26.941Z,12.20
2019-03-17T14:31:57.511Z,12.20
2019-03-17T14:34:27.932Z,12.00
2019-03-17T14:36:58.491Z,12.00
2019-03-17T14:39:29.571Z,11.90
2019-03-17T14:42:01.663Z,11.80
2019-03-17T14:44:32.939Z,11.80
2019-03-17T14:47:03.770Z,11.90
2019-03-17T14:49:34.499Z,11.80
2019-03-17T14:52:04.970Z,11.70
2019-03-17T14:54:35.594Z,11.70
2019-03-17T14:57:06.510Z,11.70
2019-03-17T14:59:36.955Z,11.70
2019-03-17T15:02:07.427Z,11.70
2019-03-17T15:04:40.993Z,11.70
2019-03-17T15:07:10.884Z,11.70
2019-03-17T15:09:44.158Z,11.80
2019-03-17T15:12:16.154Z,12.00
2019-03-17T15:14:46.562Z,12.00
2019-03-17T15:17:17.011Z,12.10
2019-03-17T15:19:47.493Z,12.20
2019-03-17T15:22:17.922Z,12.20
2019-03-17T15:24:48.367Z,12.30
2019-03-17T15:27:19.142Z,12.10
2019-03-17T15:29:49.655Z,12.00
2019-03-17T15:32:20.181Z,11.70
2019-03-17T15:34:50.663Z,11.70
2019-03-17T15:37:21.105Z,11.40
2019-03-17T15:39:51.553Z,11.30
2019-03-17T15:42:22.004Z,11.10
2019-03-17T15:44:53.007Z,10.90
2019-03-17T15:47:23.474Z,10.80
2019-03-17T15:49:53.902Z,10.80
2019-03-17T15:52:24.447Z,10.80
2019-03-17T15:54:54.874Z,10.70
2019-03-17T15:57:25.331Z,10.60
2019-03-17T15:59:55.818Z,10.60
2019-03-17T16:02:27.411Z,10.60
2019-03-17T16:04:57.926Z,10.50
2019-03-17T16:07:28.334Z,10.60
2019-03-17T16:09:58.799Z,10.60
2019-03-17T16:12:29.198Z,10.40
2019-03-17T16:14:59.615Z,10.20
2019-03-17T16:17:30.064Z,10.10
2019-03-17T16:20:00.503Z,9.90
2019-03-17T16:22:30.955Z,9.70
2019-03-17T16:25:06.295Z,9.50
2019-03-17T16:27:36.768Z,9.20
2019-03-17T16:30:09.496Z,9.10
2019-03-17T16:32:39.925Z,9.00
2019-03-17T16:35:10.682Z,8.80
2019-03-17T16:37:41.107Z,8.70
2019-03-17T16:40:13.061Z,8.50
2019-03-17T16:42:43.495Z,8.40
2019-03-17T16:45:14.618Z,8.30
2019-03-17T16:47:45.327Z,8.20
2019-03-17T16:50:16.854Z,8.20
2019-03-17T16:52:47.411Z,8.10
2019-03-17T16:55:18.259Z,8.00
2019-03-17T16:57:48.932Z,7.90
2019-03-17T17:00:19.991Z,7.80
2019-03-17T17:02:50.844Z,7.80
2019-03-17T17:05:21.498Z,7.70
2019-03-17T17:07:51.982Z,7.60
2019-03-17T17:10:22.480Z,7.60
2019-03-17T17:12:52.900Z,7.60
2019-03-17T17:15:24.377Z,7.90
2019-03-17T17:17:54.915Z,7.20
2019-03-17T17:20:26.678Z,7.20
2019-03-17T17:22:57.270Z,7.10
2019-03-17T17:25:27.722Z,7.30
2019-03-17T17:27:58.746Z,7.50
2019-03-17T17:30:29.260Z,7.20
2019-03-17T17:32:59.709Z,6.80
2019-03-17T17:35:30.142Z,7.10
2019-03-17T17:38:00.709Z,7.00
2019-03-17T17:40:31.285Z,6.90
2019-03-17T17:43:01.699Z,7.00
2019-03-17T17:45:32.288Z,6.90
2019-03-17T17:48:03.288Z,7.00
2019-03-17T17:50:33.731Z,6.80
2019-03-17T17:53:04.288Z,7.10
2019-03-17T17:55:34.698Z,6.80
2019-03-17T17:58:07.505Z,6.80
2019-03-17T18:00:39.877Z,6.70
2019-03-17T18:03:10.336Z,6.70
2019-03-17T18:05:40.889Z,6.70
2019-03-17T18:08:11.418Z,6.80
2019-03-17T18:10:41.821Z,6.70
2019-03-17T18:13:12.609Z,6.60
2019-03-17T18:15:42.994Z,6.60
2019-03-17T18:18:13.487Z,6.60
2019-03-17T18:20:43.878Z,6.50
2019-03-17T18:23:18.564Z,6.50
2019-03-17T18:25:49.206Z,6.40
2019-03-17T18:28:19.602Z,6.50
2019-03-17T18:30:50.139Z,6.50
2019-03-17T18:33:20.587Z,6.50
2019-03-17T18:35:50.986Z,6.70
2019-03-17T18:38:21.472Z,6.40
2019-03-17T18:40:52.022Z,6.40
2019-03-17T18:43:22.481Z,6.40
2019-03-17T18:45:52.967Z,6.30
2019-03-17T18:48:23.407Z,6.20
2019-03-17T18:50:54.841Z,6.20
2019-03-17T18:53:25.283Z,6.20
2019-03-17T18:55:55.765Z,6.40
2019-03-17T18:58:26.354Z,6.40
2019-03-17T19:00:58.583Z,6.50
2019-03-17T19:03:29.008Z,6.60
2019-03-17T19:05:59.486Z,6.60
2019-03-17T19:08:29.958Z,7.00
2019-03-17T19:11:01.109Z,6.80
2019-03-17T19:13:31.642Z,6.70
2019-03-17T19:16:02.338Z,6.80
2019-03-17T19:18:32.855Z,6.70
2019-03-17T19:21:03.402Z,6.70
2019-03-17T19:23:33.824Z,6.50
2019-03-17T19:26:04.311Z,6.60
2019-03-17T19:28:34.745Z,6.80
2019-03-17T19:31:22.290Z,6.80
2019-03-17T19:33:52.818Z,7.10
2019-03-17T19:36:23.239Z,7.00
2019-03-17T19:38:53.810Z,7.20
2019-03-17T19:41:26.408Z,7.30
2019-03-17T19:43:56.794Z,7.30
2019-03-17T19:46:27.229Z,7.40
2019-03-17T19:48:57.681Z,7.40
2019-03-17T19:51:28.126Z,7.60
2019-03-17T19:53:58.526Z,7.40
2019-03-17T19:56:28.996Z,7.60
2019-03-17T19:58:59.400Z,7.50
2019-03-17T20:01:29.824Z,7.50
2019-03-17T20:04:00.251Z,7.50
2019-03-17T20:06:30.645Z,7.40
2019-03-17T20:09:01.046Z,7.30
2019-03-17T20:11:31.501Z,7.60
2019-03-17T20:14:02.005Z,7.20
2019-03-17T20:16:32.463Z,7.40
2019-03-17T20:19:02.934Z,7.10
2019-03-17T20:21:33.343Z,7.00
2019-03-17T20:24:03.914Z,7.00
2019-03-17T20:26:34.449Z,7.20
2019-03-17T20:29:05.006Z,7.30
2019-03-17T20:31:35.450Z,7.50
2019-03-17T20:34:05.923Z,7.70
2019-03-17T20:36:36.355Z,7.50
2019-03-17T20:39:07.703Z,7.60
2019-03-17T20:41:38.135Z,7.70
2019-03-17T20:44:08.571Z,7.60
2019-03-17T20:46:39.272Z,7.60
2019-03-17T20:49:09.811Z,7.60
2019-03-17T20:51:40.238Z,7.70
2019-03-17T20:54:11.048Z,7.30
2019-03-17T20:56:41.475Z,7.30
2019-03-17T20:59:11.924Z,7.10
2019-03-17T21:01:42.463Z,7.10
2019-03-17T21:04:12.994Z,7.30
2019-03-17T21:06:43.541Z,7.00
2019-03-17T21:09:14.071Z,6.90
2019-03-17T21:11:44.694Z,7.00
2019-03-17T21:14:15.662Z,6.80
2019-03-17T21:16:46.267Z,6.90
2019-03-17T21:19:16.692Z,6.70
2019-03-17T21:21:47.392Z,6.60
2019-03-17T21:24:17.722Z,6.70
2019-03-17T21:26:48.167Z,6.60
2019-03-17T21:29:18.706Z,6.50
2019-03-17T21:31:49.232Z,6.50
2019-03-17T21:34:19.679Z,6.60
2019-03-17T21:36:50.155Z,6.50
2019-03-17T21:39:20.606Z,6.40
2019-03-17T21:41:51.055Z,6.20
2019-03-17T21:44:21.501Z,6.20
2019-03-17T21:46:51.926Z,6.30
2019-03-17T21:49:22.359Z,6.30
2019-03-17T21:51:52.853Z,6.30
2019-03-17T21:54:23.303Z,6.30
2019-03-17T21:56:53.791Z,6.30
2019-03-17T21:59:24.223Z,6.20
2019-03-17T22:01:54.670Z,6.60
2019-03-17T22:04:25.165Z,6.60
2019-03-17T22:06:55.839Z,6.20
2019-03-17T22:09:26.347Z,6.40
2019-03-17T22:11:56.756Z,6.20
2019-03-17T22:14:27.215Z,6.30
2019-03-17T22:16:57.680Z,6.20
2019-03-17T22:19:28.171Z,6.40
2019-03-17T22:21:58.643Z,6.30
2019-03-17T22:24:29.814Z,6.20
2019-03-17T22:27:00.231Z,6.30
2019-03-17T22:29:30.636Z,6.20
2019-03-17T22:32:01.071Z,6.30
2019-03-17T22:34:31.483Z,6.40
2019-03-17T22:37:01.940Z,6.50
2019-03-17T22:39:32.412Z,6.40
2019-03-17T22:42:02.859Z,6.40
2019-03-17T22:44:33.278Z,6.50
2019-03-17T22:47:03.705Z,6.70
2019-03-17T22:49:34.184Z,6.60
2019-03-17T22:52:04.792Z,6.50
2019-03-17T22:54:35.248Z,6.70
2019-03-17T22:57:05.935Z,6.60
2019-03-17T22:59:36.347Z,6.60
2019-03-17T23:02:07.039Z,6.70
2019-03-17T23:04:37.507Z,6.90
2019-03-17T23:07:08.071Z,6.80
2019-03-17T23:09:38.893Z,7.00
2019-03-17T23:12:09.339Z,6.80
2019-03-17T23:14:39.809Z,7.00
2019-03-17T23:17:10.392Z,6.70
2019-03-17T23:19:40.863Z,6.70
2019-03-17T23:22:11.436Z,6.70
2019-03-17T23:24:41.999Z,6.70
2019-03-17T23:27:12.532Z,6.50
2019-03-17T23:29:42.982Z,6.70
2019-03-17T23:32:13.445Z,6.70
2019-03-17T23:34:43.938Z,6.70
2019-03-17T23:37:14.456Z,6.80
2019-03-17T23:39:44.903Z,6.70
2019-03-17T23:42:15.418Z,6.70
2019-03-17T23:44:49.313Z,6.70
2019-03-17T23:47:17.985Z,6.70
2019-03-17T23:49:48.447Z,6.80
2019-03-17T23:52:19.031Z,6.70
2019-03-17T23:54:49.556Z,6.80
2019-03-17T23:57:20.068Z,6.90
2019-03-17T23:59:50.673Z,6.70
